sensor_id;sensor_type;location;lat;lon;timestamp;P1;durP1;ratioP1;P2;durP2;ratioP2
38312;SDS011;24114;52.260;6.714;2023-02-11T00:01:34;55.97;;;40.15;;
38312;SDS011;24114;52.260;6.714;2023-02-11T00:04:04;57.28;;;39.67;;
38312;SDS011;24114;52.260;6.714;2023-02-11T00:06:33;52.95;;;39.03;;
38312;SDS011;24114;52.260;6.714;2023-02-11T00:09:01;52.50;;;38.00;;
38312;SDS011;24114;52.260;6.714;2023-02-11T00:11:29;51.28;;;36.35;;
38312;SDS011;24114;52.260;6.714;2023-02-11T00:13:58;56.78;;;38.45;;
38312;SDS011;24114;52.260;6.714;2023-02-11T00:16:27;52.13;;;36.15;;
38312;SDS011;24114;52.260;6.714;2023-02-11T00:18:57;49.22;;;34.70;;
38312;SDS011;24114;52.260;6.714;2023-02-11T00:21:27;44.70;;;32.58;;
38312;SDS011;24114;52.260;6.714;2023-02-11T00:23:55;44.25;;;32.67;;
38312;SDS011;24114;52.260;6.714;2023-02-11T00:26:26;45.50;;;31.55;;
38312;SDS011;24114;52.260;6.714;2023-02-11T00:28:55;42.08;;;30.80;;
38312;SDS011;24114;52.260;6.714;2023-02-11T00:31:24;42.67;;;32.07;;
38312;SDS011;24114;52.260;6.714;2023-02-11T00:33:52;45.33;;;31.27;;
38312;SDS011;24114;52.260;6.714;2023-02-11T00:36:21;43.33;;;31.35;;
38312;SDS011;24114;52.260;6.714;2023-02-11T00:38:51;41.25;;;28.35;;
38312;SDS011;24114;52.260;6.714;2023-02-11T00:41:20;40.17;;;28.15;;
38312;SDS011;24114;52.260;6.714;2023-02-11T00:43:48;43.50;;;28.17;;
38312;SDS011;24114;52.260;6.714;2023-02-11T00:46:16;41.40;;;27.97;;
38312;SDS011;24114;52.260;6.714;2023-02-11T00:48:44;40.53;;;26.88;;
38312;SDS011;24114;52.260;6.714;2023-02-11T00:51:12;40.53;;;27.05;;
38312;SDS011;24114;52.260;6.714;2023-02-11T00:53:39;36.13;;;25.17;;
38312;SDS011;24114;52.260;6.714;2023-02-11T00:56:08;36.65;;;25.38;;
38312;SDS011;24114;52.260;6.714;2023-02-11T00:58:36;36.85;;;24.88;;
38312;SDS011;24114;52.260;6.714;2023-02-11T01:01:04;34.97;;;24.35;;
38312;SDS011;24114;52.260;6.714;2023-02-11T01:03:33;36.03;;;23.83;;
38312;SDS011;24114;52.260;6.714;2023-02-11T01:06:01;36.67;;;24.80;;
38312;SDS011;24114;52.260;6.714;2023-02-11T01:08:28;39.25;;;25.25;;
38312;SDS011;24114;52.260;6.714;2023-02-11T01:10:56;36.53;;;23.98;;
38312;SDS011;24114;52.260;6.714;2023-02-11T01:13:27;35.63;;;23.55;;
38312;SDS011;24114;52.260;6.714;2023-02-11T01:15:55;32.78;;;22.38;;
38312;SDS011;24114;52.260;6.714;2023-02-11T01:18:23;34.22;;;23.08;;
38312;SDS011;24114;52.260;6.714;2023-02-11T01:20:51;31.85;;;21.48;;
38312;SDS011;24114;52.260;6.714;2023-02-11T01:23:19;32.25;;;21.70;;
38312;SDS011;24114;52.260;6.714;2023-02-11T01:25:47;30.38;;;21.23;;
38312;SDS011;24114;52.260;6.714;2023-02-11T01:28:16;32.38;;;21.42;;
38312;SDS011;24114;52.260;6.714;2023-02-11T01:30:46;30.75;;;20.50;;
38312;SDS011;24114;52.260;6.714;2023-02-11T01:33:14;29.08;;;20.90;;
38312;SDS011;24114;52.260;6.714;2023-02-11T01:35:42;28.40;;;19.55;;
38312;SDS011;24114;52.260;6.714;2023-02-11T01:38:13;30.02;;;19.00;;
38312;SDS011;24114;52.260;6.714;2023-02-11T01:40:45;27.85;;;19.00;;
38312;SDS011;24114;52.260;6.714;2023-02-11T01:43:13;29.13;;;18.00;;
38312;SDS011;24114;52.260;6.714;2023-02-11T01:48:30;24.60;;;17.13;;
38312;SDS011;24114;52.260;6.714;2023-02-11T01:51:02;26.73;;;17.70;;
38312;SDS011;24114;52.260;6.714;2023-02-11T01:53:31;28.20;;;17.67;;
38312;SDS011;24114;52.260;6.714;2023-02-11T01:56:17;26.90;;;17.00;;
38312;SDS011;24114;52.260;6.714;2023-02-11T01:59:06;27.17;;;16.65;;
38312;SDS011;24114;52.260;6.714;2023-02-11T02:01:38;30.10;;;17.05;;
38312;SDS011;24114;52.260;6.714;2023-02-11T02:04:07;26.63;;;17.27;;
38312;SDS011;24114;52.260;6.714;2023-02-11T02:06:38;26.45;;;17.27;;
38312;SDS011;24114;52.260;6.714;2023-02-11T02:09:08;24.55;;;15.82;;
38312;SDS011;24114;52.260;6.714;2023-02-11T02:11:39;24.88;;;16.30;;
38312;SDS011;24114;52.260;6.714;2023-02-11T02:14:07;24.98;;;16.83;;
38312;SDS011;24114;52.260;6.714;2023-02-11T02:16:35;27.02;;;15.93;;
38312;SDS011;24114;52.260;6.714;2023-02-11T02:19:10;24.35;;;16.30;;
38312;SDS011;24114;52.260;6.714;2023-02-11T02:25:18;21.05;;;15.13;;
38312;SDS011;24114;52.260;6.714;2023-02-11T02:27:55;26.15;;;16.13;;
38312;SDS011;24114;52.260;6.714;2023-02-11T02:30:52;24.92;;;15.80;;
38312;SDS011;24114;52.260;6.714;2023-02-11T02:36:17;27.05;;;15.80;;
38312;SDS011;24114;52.260;6.714;2023-02-11T02:38:50;28.80;;;15.60;;
38312;SDS011;24114;52.260;6.714;2023-02-11T02:41:21;23.02;;;15.20;;
38312;SDS011;24114;52.260;6.714;2023-02-11T02:43:50;25.15;;;15.80;;
38312;SDS011;24114;52.260;6.714;2023-02-11T02:46:18;22.83;;;14.75;;
38312;SDS011;24114;52.260;6.714;2023-02-11T02:48:49;23.00;;;15.75;;
38312;SDS011;24114;52.260;6.714;2023-02-11T02:51:23;27.08;;;15.75;;
38312;SDS011;24114;52.260;6.714;2023-02-11T02:54:09;27.95;;;15.88;;
38312;SDS011;24114;52.260;6.714;2023-02-11T02:56:49;24.50;;;15.70;;
38312;SDS011;24114;52.260;6.714;2023-02-11T02:59:24;31.77;;;16.90;;
38312;SDS011;24114;52.260;6.714;2023-02-11T03:01:59;25.08;;;15.75;;
38312;SDS011;24114;52.260;6.714;2023-02-11T03:04:34;26.25;;;16.55;;
38312;SDS011;24114;52.260;6.714;2023-02-11T03:07:06;28.13;;;15.95;;
38312;SDS011;24114;52.260;6.714;2023-02-11T03:09:36;28.95;;;16.63;;
38312;SDS011;24114;52.260;6.714;2023-02-11T03:12:07;27.55;;;16.42;;
38312;SDS011;24114;52.260;6.714;2023-02-11T03:14:37;26.67;;;16.33;;
38312;SDS011;24114;52.260;6.714;2023-02-11T03:17:05;24.75;;;16.77;;
38312;SDS011;24114;52.260;6.714;2023-02-11T03:19:36;26.17;;;17.02;;
38312;SDS011;24114;52.260;6.714;2023-02-11T03:22:07;25.87;;;16.90;;
38312;SDS011;24114;52.260;6.714;2023-02-11T03:24:38;27.20;;;16.70;;
38312;SDS011;24114;52.260;6.714;2023-02-11T03:27:08;28.83;;;17.00;;
38312;SDS011;24114;52.260;6.714;2023-02-11T03:29:39;26.08;;;16.50;;
38312;SDS011;24114;52.260;6.714;2023-02-11T03:32:11;26.80;;;16.75;;
38312;SDS011;24114;52.260;6.714;2023-02-11T03:34:44;28.43;;;16.63;;
38312;SDS011;24114;52.260;6.714;2023-02-11T03:37:15;25.98;;;16.17;;
38312;SDS011;24114;52.260;6.714;2023-02-11T03:39:46;28.40;;;16.57;;
38312;SDS011;24114;52.260;6.714;2023-02-11T03:42:17;27.13;;;17.17;;
38312;SDS011;24114;52.260;6.714;2023-02-11T03:44:47;30.83;;;17.48;;
38312;SDS011;24114;52.260;6.714;2023-02-11T03:47:17;26.38;;;15.93;;
38312;SDS011;24114;52.260;6.714;2023-02-11T03:49:49;24.85;;;16.52;;
38312;SDS011;24114;52.260;6.714;2023-02-11T03:52:18;27.52;;;17.33;;
38312;SDS011;24114;52.260;6.714;2023-02-11T03:54:47;27.63;;;16.43;;
38312;SDS011;24114;52.260;6.714;2023-02-11T03:57:16;28.08;;;16.98;;
38312;SDS011;24114;52.260;6.714;2023-02-11T03:59:51;27.95;;;16.52;;
38312;SDS011;24114;52.260;6.714;2023-02-11T04:02:20;23.17;;;15.52;;
38312;SDS011;24114;52.260;6.714;2023-02-11T04:04:49;25.35;;;15.73;;
38312;SDS011;24114;52.260;6.714;2023-02-11T04:07:17;30.13;;;16.35;;
38312;SDS011;24114;52.260;6.714;2023-02-11T04:09:44;26.52;;;16.15;;
38312;SDS011;24114;52.260;6.714;2023-02-11T04:12:12;29.65;;;16.55;;
38312;SDS011;24114;52.260;6.714;2023-02-11T04:14:40;26.80;;;16.13;;
38312;SDS011;24114;52.260;6.714;2023-02-11T04:17:08;25.67;;;16.45;;
38312;SDS011;24114;52.260;6.714;2023-02-11T04:19:36;24.97;;;15.77;;
38312;SDS011;24114;52.260;6.714;2023-02-11T04:22:05;23.42;;;16.20;;
38312;SDS011;24114;52.260;6.714;2023-02-11T04:24:33;29.37;;;16.20;;
38312;SDS011;24114;52.260;6.714;2023-02-11T04:27:01;24.50;;;15.65;;
38312;SDS011;24114;52.260;6.714;2023-02-11T04:29:28;28.67;;;15.43;;
38312;SDS011;24114;52.260;6.714;2023-02-11T04:31:57;29.67;;;16.23;;
38312;SDS011;24114;52.260;6.714;2023-02-11T04:34:25;25.40;;;15.85;;
38312;SDS011;24114;52.260;6.714;2023-02-11T04:36:52;24.75;;;15.45;;
38312;SDS011;24114;52.260;6.714;2023-02-11T04:39:21;27.77;;;15.90;;
38312;SDS011;24114;52.260;6.714;2023-02-11T04:41:49;28.00;;;15.93;;
38312;SDS011;24114;52.260;6.714;2023-02-11T04:44:17;27.35;;;15.73;;
38312;SDS011;24114;52.260;6.714;2023-02-11T04:46:45;24.67;;;15.52;;
38312;SDS011;24114;52.260;6.714;2023-02-11T04:49:13;23.07;;;15.20;;
38312;SDS011;24114;52.260;6.714;2023-02-11T04:51:41;27.48;;;16.02;;
38312;SDS011;24114;52.260;6.714;2023-02-11T04:54:12;26.95;;;15.75;;
38312;SDS011;24114;52.260;6.714;2023-02-11T04:56:42;27.70;;;15.82;;
38312;SDS011;24114;52.260;6.714;2023-02-11T04:59:09;24.83;;;15.23;;
38312;SDS011;24114;52.260;6.714;2023-02-11T05:01:38;26.92;;;15.73;;
38312;SDS011;24114;52.260;6.714;2023-02-11T05:04:06;28.67;;;15.95;;
38312;SDS011;24114;52.260;6.714;2023-02-11T05:06:34;26.92;;;15.68;;
38312;SDS011;24114;52.260;6.714;2023-02-11T05:09:02;26.93;;;16.03;;
38312;SDS011;24114;52.260;6.714;2023-02-11T05:11:29;24.90;;;15.30;;
38312;SDS011;24114;52.260;6.714;2023-02-11T05:13:59;30.02;;;15.90;;
38312;SDS011;24114;52.260;6.714;2023-02-11T05:16:26;27.10;;;16.05;;
38312;SDS011;24114;52.260;6.714;2023-02-11T05:18:54;24.27;;;15.77;;
38312;SDS011;24114;52.260;6.714;2023-02-11T05:21:22;30.67;;;16.70;;
38312;SDS011;24114;52.260;6.714;2023-02-11T05:23:49;29.65;;;17.27;;
38312;SDS011;24114;52.260;6.714;2023-02-11T05:26:17;25.92;;;17.00;;
38312;SDS011;24114;52.260;6.714;2023-02-11T05:28:47;30.17;;;17.73;;
38312;SDS011;24114;52.260;6.714;2023-02-11T05:31:17;28.42;;;17.75;;
38312;SDS011;24114;52.260;6.714;2023-02-11T05:33:44;26.10;;;17.00;;
38312;SDS011;24114;52.260;6.714;2023-02-11T05:36:12;28.33;;;17.95;;
38312;SDS011;24114;52.260;6.714;2023-02-11T05:38:41;30.00;;;18.38;;
38312;SDS011;24114;52.260;6.714;2023-02-11T05:41:09;29.58;;;18.80;;
38312;SDS011;24114;52.260;6.714;2023-02-11T05:43:37;26.40;;;18.20;;
38312;SDS011;24114;52.260;6.714;2023-02-11T05:46:05;25.92;;;18.35;;
38312;SDS011;24114;52.260;6.714;2023-02-11T05:48:34;29.90;;;18.65;;
38312;SDS011;24114;52.260;6.714;2023-02-11T05:51:02;32.33;;;19.85;;
38312;SDS011;24114;52.260;6.714;2023-02-11T05:53:30;28.75;;;19.55;;
38312;SDS011;24114;52.260;6.714;2023-02-11T05:55:57;28.87;;;20.13;;
38312;SDS011;24114;52.260;6.714;2023-02-11T05:58:25;34.88;;;20.77;;
38312;SDS011;24114;52.260;6.714;2023-02-11T06:00:53;31.67;;;20.33;;
38312;SDS011;24114;52.260;6.714;2023-02-11T06:03:21;30.77;;;20.50;;
38312;SDS011;24114;52.260;6.714;2023-02-11T06:05:50;29.65;;;21.33;;
38312;SDS011;24114;52.260;6.714;2023-02-11T06:08:18;34.17;;;21.60;;
38312;SDS011;24114;52.260;6.714;2023-02-11T06:10:46;36.28;;;21.60;;
38312;SDS011;24114;52.260;6.714;2023-02-11T06:13:13;34.40;;;21.52;;
38312;SDS011;24114;52.260;6.714;2023-02-11T06:15:43;29.95;;;22.10;;
38312;SDS011;24114;52.260;6.714;2023-02-11T06:18:11;34.00;;;23.02;;
38312;SDS011;24114;52.260;6.714;2023-02-11T06:20:39;34.47;;;22.23;;
38312;SDS011;24114;52.260;6.714;2023-02-11T06:23:08;32.78;;;22.27;;
38312;SDS011;24114;52.260;6.714;2023-02-11T06:25:36;36.93;;;23.60;;
38312;SDS011;24114;52.260;6.714;2023-02-11T06:28:04;37.05;;;24.52;;
38312;SDS011;24114;52.260;6.714;2023-02-11T06:30:31;36.83;;;24.52;;
38312;SDS011;24114;52.260;6.714;2023-02-11T06:32:59;42.72;;;25.90;;
38312;SDS011;24114;52.260;6.714;2023-02-11T06:35:27;40.92;;;26.80;;
38312;SDS011;24114;52.260;6.714;2023-02-11T06:37:55;40.30;;;26.98;;
38312;SDS011;24114;52.260;6.714;2023-02-11T06:40:24;41.60;;;26.77;;
38312;SDS011;24114;52.260;6.714;2023-02-11T06:42:52;42.53;;;27.77;;
38312;SDS011;24114;52.260;6.714;2023-02-11T06:45:20;42.78;;;26.42;;
38312;SDS011;24114;52.260;6.714;2023-02-11T06:47:49;37.25;;;25.83;;
38312;SDS011;24114;52.260;6.714;2023-02-11T06:50:17;42.58;;;27.00;;
38312;SDS011;24114;52.260;6.714;2023-02-11T06:52:45;41.60;;;28.80;;
38312;SDS011;24114;52.260;6.714;2023-02-11T06:55:13;43.28;;;27.50;;
38312;SDS011;24114;52.260;6.714;2023-02-11T06:57:42;45.33;;;29.58;;
38312;SDS011;24114;52.260;6.714;2023-02-11T07:00:10;42.20;;;28.00;;
38312;SDS011;24114;52.260;6.714;2023-02-11T07:02:39;40.58;;;28.58;;
38312;SDS011;24114;52.260;6.714;2023-02-11T07:05:07;44.15;;;28.67;;
38312;SDS011;24114;52.260;6.714;2023-02-11T07:07:35;47.63;;;30.35;;
38312;SDS011;24114;52.260;6.714;2023-02-11T07:10:03;41.58;;;28.95;;
38312;SDS011;24114;52.260;6.714;2023-02-11T07:12:31;43.42;;;30.52;;
38312;SDS011;24114;52.260;6.714;2023-02-11T07:15:00;46.75;;;31.02;;
38312;SDS011;24114;52.260;6.714;2023-02-11T07:17:28;44.67;;;30.02;;
38312;SDS011;24114;52.260;6.714;2023-02-11T07:19:56;48.93;;;31.47;;
38312;SDS011;24114;52.260;6.714;2023-02-11T07:22:23;46.22;;;31.25;;
38312;SDS011;24114;52.260;6.714;2023-02-11T07:24:51;43.78;;;30.42;;
38312;SDS011;24114;52.260;6.714;2023-02-11T07:27:19;46.87;;;30.83;;
38312;SDS011;24114;52.260;6.714;2023-02-11T07:29:47;43.10;;;30.17;;
38312;SDS011;24114;52.260;6.714;2023-02-11T07:32:16;42.08;;;29.90;;
38312;SDS011;24114;52.260;6.714;2023-02-11T07:34:44;44.25;;;30.13;;
38312;SDS011;24114;52.260;6.714;2023-02-11T07:37:13;44.20;;;30.75;;
38312;SDS011;24114;52.260;6.714;2023-02-11T07:39:41;45.67;;;30.88;;
38312;SDS011;24114;52.260;6.714;2023-02-11T07:42:08;50.88;;;32.33;;
38312;SDS011;24114;52.260;6.714;2023-02-11T07:44:36;46.35;;;32.03;;
38312;SDS011;24114;52.260;6.714;2023-02-11T07:47:04;46.97;;;31.48;;
38312;SDS011;24114;52.260;6.714;2023-02-11T07:49:33;46.00;;;33.03;;
38312;SDS011;24114;52.260;6.714;2023-02-11T07:52:01;48.25;;;31.80;;
38312;SDS011;24114;52.260;6.714;2023-02-11T07:54:29;51.78;;;32.85;;
38312;SDS011;24114;52.260;6.714;2023-02-11T07:56:56;46.90;;;32.03;;
38312;SDS011;24114;52.260;6.714;2023-02-11T07:59:24;46.10;;;32.00;;
38312;SDS011;24114;52.260;6.714;2023-02-11T08:01:52;47.55;;;32.80;;
38312;SDS011;24114;52.260;6.714;2023-02-11T08:04:20;45.40;;;31.48;;
38312;SDS011;24114;52.260;6.714;2023-02-11T08:06:49;49.80;;;32.30;;
38312;SDS011;24114;52.260;6.714;2023-02-11T08:09:18;50.03;;;32.67;;
38312;SDS011;24114;52.260;6.714;2023-02-11T08:11:45;43.20;;;31.65;;
38312;SDS011;24114;52.260;6.714;2023-02-11T08:14:13;50.20;;;31.85;;
38312;SDS011;24114;52.260;6.714;2023-02-11T08:16:41;45.80;;;32.23;;
38312;SDS011;24114;52.260;6.714;2023-02-11T08:19:09;47.90;;;32.15;;
38312;SDS011;24114;52.260;6.714;2023-02-11T08:21:39;50.65;;;32.33;;
38312;SDS011;24114;52.260;6.714;2023-02-11T08:24:08;49.10;;;34.00;;
38312;SDS011;24114;52.260;6.714;2023-02-11T08:26:36;50.67;;;33.40;;
38312;SDS011;24114;52.260;6.714;2023-02-11T08:29:05;47.20;;;32.63;;
38312;SDS011;24114;52.260;6.714;2023-02-11T08:31:36;48.85;;;33.08;;
38312;SDS011;24114;52.260;6.714;2023-02-11T08:34:05;49.03;;;33.08;;
38312;SDS011;24114;52.260;6.714;2023-02-11T08:36:33;48.38;;;33.42;;
38312;SDS011;24114;52.260;6.714;2023-02-11T08:39:03;49.08;;;34.05;;
38312;SDS011;24114;52.260;6.714;2023-02-11T08:41:49;52.28;;;33.65;;
38312;SDS011;24114;52.260;6.714;2023-02-11T08:44:18;45.97;;;32.97;;
38312;SDS011;24114;52.260;6.714;2023-02-11T08:46:47;50.45;;;34.30;;
38312;SDS011;24114;52.260;6.714;2023-02-11T08:49:15;48.30;;;33.00;;
38312;SDS011;24114;52.260;6.714;2023-02-11T08:51:43;53.15;;;35.25;;
38312;SDS011;24114;52.260;6.714;2023-02-11T08:54:11;52.55;;;35.03;;
38312;SDS011;24114;52.260;6.714;2023-02-11T08:56:39;47.88;;;33.65;;
38312;SDS011;24114;52.260;6.714;2023-02-11T08:59:09;47.95;;;33.25;;
38312;SDS011;24114;52.260;6.714;2023-02-11T09:01:39;47.05;;;33.83;;
38312;SDS011;24114;52.260;6.714;2023-02-11T09:04:08;53.47;;;35.97;;
38312;SDS011;24114;52.260;6.714;2023-02-11T09:06:35;50.28;;;34.38;;
38312;SDS011;24114;52.260;6.714;2023-02-11T09:09:03;49.25;;;34.17;;
38312;SDS011;24114;52.260;6.714;2023-02-11T09:11:32;48.28;;;33.50;;
38312;SDS011;24114;52.260;6.714;2023-02-11T09:14:01;51.33;;;34.43;;
38312;SDS011;24114;52.260;6.714;2023-02-11T09:16:32;53.33;;;34.47;;
38312;SDS011;24114;52.260;6.714;2023-02-11T09:19:03;51.88;;;37.00;;
38312;SDS011;24114;52.260;6.714;2023-02-11T09:21:31;52.63;;;36.25;;
38312;SDS011;24114;52.260;6.714;2023-02-11T09:23:59;47.38;;;33.10;;
38312;SDS011;24114;52.260;6.714;2023-02-11T09:26:28;47.63;;;32.60;;
38312;SDS011;24114;52.260;6.714;2023-02-11T09:28:57;48.28;;;33.85;;
38312;SDS011;24114;52.260;6.714;2023-02-11T09:31:25;46.60;;;33.47;;
38312;SDS011;24114;52.260;6.714;2023-02-11T09:33:56;50.80;;;34.53;;
38312;SDS011;24114;52.260;6.714;2023-02-11T09:36:26;48.45;;;34.25;;
38312;SDS011;24114;52.260;6.714;2023-02-11T09:38:55;48.97;;;34.53;;
38312;SDS011;24114;52.260;6.714;2023-02-11T09:41:30;45.57;;;33.00;;
38312;SDS011;24114;52.260;6.714;2023-02-11T09:44:02;48.55;;;33.83;;
38312;SDS011;24114;52.260;6.714;2023-02-11T09:46:35;46.73;;;33.37;;
38312;SDS011;24114;52.260;6.714;2023-02-11T09:49:05;47.95;;;33.78;;
38312;SDS011;24114;52.260;6.714;2023-02-11T09:51:35;47.92;;;33.55;;
38312;SDS011;24114;52.260;6.714;2023-02-11T09:54:10;47.88;;;33.58;;
38312;SDS011;24114;52.260;6.714;2023-02-11T09:56:41;45.78;;;33.33;;
38312;SDS011;24114;52.260;6.714;2023-02-11T09:59:09;47.80;;;32.92;;
38312;SDS011;24114;52.260;6.714;2023-02-11T10:01:40;49.33;;;32.07;;
38312;SDS011;24114;52.260;6.714;2023-02-11T10:04:16;43.20;;;32.95;;
38312;SDS011;24114;52.260;6.714;2023-02-11T10:06:49;45.78;;;32.72;;
38312;SDS011;24114;52.260;6.714;2023-02-11T10:09:23;48.38;;;32.72;;
38312;SDS011;24114;52.260;6.714;2023-02-11T10:11:59;45.90;;;32.65;;
38312;SDS011;24114;52.260;6.714;2023-02-11T10:14:45;45.13;;;32.42;;
38312;SDS011;24114;52.260;6.714;2023-02-11T10:17:21;46.03;;;32.30;;
38312;SDS011;24114;52.260;6.714;2023-02-11T10:19:59;47.07;;;34.80;;
38312;SDS011;24114;52.260;6.714;2023-02-11T10:22:34;46.65;;;32.65;;
38312;SDS011;24114;52.260;6.714;2023-02-11T10:25:07;49.40;;;33.83;;
38312;SDS011;24114;52.260;6.714;2023-02-11T10:27:44;53.63;;;33.63;;
38312;SDS011;24114;52.260;6.714;2023-02-11T10:32:25;46.83;;;32.85;;
38312;SDS011;24114;52.260;6.714;2023-02-11T10:34:57;44.53;;;32.28;;
38312;SDS011;24114;52.260;6.714;2023-02-11T10:37:28;44.10;;;32.72;;
38312;SDS011;24114;52.260;6.714;2023-02-11T10:39:56;45.72;;;33.58;;
38312;SDS011;24114;52.260;6.714;2023-02-11T10:42:24;44.53;;;31.67;;
38312;SDS011;24114;52.260;6.714;2023-02-11T10:44:54;44.80;;;31.92;;
38312;SDS011;24114;52.260;6.714;2023-02-11T10:47:27;44.72;;;31.95;;
38312;SDS011;24114;52.260;6.714;2023-02-11T10:49:58;42.38;;;31.38;;
38312;SDS011;24114;52.260;6.714;2023-02-11T10:52:29;43.20;;;31.05;;
38312;SDS011;24114;52.260;6.714;2023-02-11T10:54:58;42.60;;;30.70;;
38312;SDS011;24114;52.260;6.714;2023-02-11T10:57:29;45.58;;;31.50;;
38312;SDS011;24114;52.260;6.714;2023-02-11T11:00:04;47.20;;;32.00;;
38312;SDS011;24114;52.260;6.714;2023-02-11T11:02:53;43.80;;;32.40;;
38312;SDS011;24114;52.260;6.714;2023-02-11T11:05:25;45.60;;;31.35;;
38312;SDS011;24114;52.260;6.714;2023-02-11T11:07:56;41.83;;;31.52;;
38312;SDS011;24114;52.260;6.714;2023-02-11T11:10:26;40.35;;;29.77;;
38312;SDS011;24114;52.260;6.714;2023-02-11T11:12:57;43.08;;;30.83;;
38312;SDS011;24114;52.260;6.714;2023-02-11T11:15:25;41.10;;;30.35;;
38312;SDS011;24114;52.260;6.714;2023-02-11T11:18:12;37.55;;;29.40;;
38312;SDS011;24114;52.260;6.714;2023-02-11T11:20:53;37.42;;;30.05;;
38312;SDS011;24114;52.260;6.714;2023-02-11T11:23:23;36.17;;;28.70;;
38312;SDS011;24114;52.260;6.714;2023-02-11T11:26:03;40.15;;;29.98;;
38312;SDS011;24114;52.260;6.714;2023-02-11T11:28:35;39.70;;;29.42;;
38312;SDS011;24114;52.260;6.714;2023-02-11T11:31:04;37.80;;;28.67;;
38312;SDS011;24114;52.260;6.714;2023-02-11T11:33:40;40.03;;;29.80;;
38312;SDS011;24114;52.260;6.714;2023-02-11T11:36:10;37.40;;;28.48;;
38312;SDS011;24114;52.260;6.714;2023-02-11T11:38:42;39.88;;;30.63;;
38312;SDS011;24114;52.260;6.714;2023-02-11T11:41:14;37.55;;;28.17;;
38312;SDS011;24114;52.260;6.714;2023-02-11T11:43:53;36.45;;;29.88;;
38312;SDS011;24114;52.260;6.714;2023-02-11T11:46:22;35.22;;;27.85;;
38312;SDS011;24114;52.260;6.714;2023-02-11T11:48:53;39.35;;;28.77;;
38312;SDS011;24114;52.260;6.714;2023-02-11T11:51:23;36.58;;;30.05;;
38312;SDS011;24114;52.260;6.714;2023-02-11T11:53:52;36.95;;;29.38;;
38312;SDS011;24114;52.260;6.714;2023-02-11T11:56:23;35.30;;;28.50;;
38312;SDS011;24114;52.260;6.714;2023-02-11T11:58:53;35.10;;;28.93;;
38312;SDS011;24114;52.260;6.714;2023-02-11T12:01:23;36.65;;;28.77;;
38312;SDS011;24114;52.260;6.714;2023-02-11T12:04:12;35.83;;;31.30;;
38312;SDS011;24114;52.260;6.714;2023-02-11T12:06:56;37.53;;;28.43;;
38312;SDS011;24114;52.260;6.714;2023-02-11T12:09:30;34.20;;;27.45;;
38312;SDS011;24114;52.260;6.714;2023-02-11T12:12:10;34.35;;;28.80;;
38312;SDS011;24114;52.260;6.714;2023-02-11T12:14:52;34.13;;;27.58;;
38312;SDS011;24114;52.260;6.714;2023-02-11T12:17:26;34.45;;;27.70;;
38312;SDS011;24114;52.260;6.714;2023-02-11T12:20:09;34.25;;;27.52;;
38312;SDS011;24114;52.260;6.714;2023-02-11T12:22:45;33.30;;;26.73;;
38312;SDS011;24114;52.260;6.714;2023-02-11T12:25:23;29.40;;;24.35;;
38312;SDS011;24114;52.260;6.714;2023-02-11T12:27:55;30.08;;;23.27;;
38312;SDS011;24114;52.260;6.714;2023-02-11T12:30:33;26.73;;;22.25;;
38312;SDS011;24114;52.260;6.714;2023-02-11T12:33:08;26.52;;;21.80;;
38312;SDS011;24114;52.260;6.714;2023-02-11T12:35:42;24.67;;;21.23;;
38312;SDS011;24114;52.260;6.714;2023-02-11T12:38:20;22.67;;;19.35;;
38312;SDS011;24114;52.260;6.714;2023-02-11T12:41:05;21.50;;;16.75;;
38312;SDS011;24114;52.260;6.714;2023-02-11T12:43:41;22.38;;;17.38;;
38312;SDS011;24114;52.260;6.714;2023-02-11T12:46:29;19.17;;;16.55;;
38312;SDS011;24114;52.260;6.714;2023-02-11T12:49:10;21.08;;;16.73;;
38312;SDS011;24114;52.260;6.714;2023-02-11T12:51:53;19.27;;;15.20;;
38312;SDS011;24114;52.260;6.714;2023-02-11T12:54:29;17.80;;;13.93;;
38312;SDS011;24114;52.260;6.714;2023-02-11T12:56:59;19.08;;;14.65;;
38312;SDS011;24114;52.260;6.714;2023-02-11T12:59:33;17.30;;;14.57;;
38312;SDS011;24114;52.260;6.714;2023-02-11T13:02:10;15.50;;;13.80;;
38312;SDS011;24114;52.260;6.714;2023-02-11T13:04:45;20.70;;;15.82;;
38312;SDS011;24114;52.260;6.714;2023-02-11T13:07:16;17.38;;;13.07;;
38312;SDS011;24114;52.260;6.714;2023-02-11T13:09:49;15.10;;;12.50;;
38312;SDS011;24114;52.260;6.714;2023-02-11T13:12:18;16.93;;;12.20;;
38312;SDS011;24114;52.260;6.714;2023-02-11T13:15:06;16.15;;;11.73;;
38312;SDS011;24114;52.260;6.714;2023-02-11T13:17:36;16.42;;;12.35;;
38312;SDS011;24114;52.260;6.714;2023-02-11T13:22:44;12.82;;;11.40;;
38312;SDS011;24114;52.260;6.714;2023-02-11T13:25:17;13.98;;;11.38;;
38312;SDS011;24114;52.260;6.714;2023-02-11T13:27:50;12.35;;;9.25;;
38312;SDS011;24114;52.260;6.714;2023-02-11T13:30:25;10.88;;;8.13;;
38312;SDS011;24114;52.260;6.714;2023-02-11T13:33:02;11.33;;;9.37;;
38312;SDS011;24114;52.260;6.714;2023-02-11T13:35:32;10.33;;;7.53;;
38312;SDS011;24114;52.260;6.714;2023-02-11T13:38:02;11.35;;;7.50;;
38312;SDS011;24114;52.260;6.714;2023-02-11T13:40:32;10.38;;;7.20;;
38312;SDS011;24114;52.260;6.714;2023-02-11T13:43:01;9.05;;;7.57;;
38312;SDS011;24114;52.260;6.714;2023-02-11T13:45:31;6.82;;;5.93;;
38312;SDS011;24114;52.260;6.714;2023-02-11T13:48:01;9.77;;;6.60;;
38312;SDS011;24114;52.260;6.714;2023-02-11T13:50:31;7.53;;;5.90;;
38312;SDS011;24114;52.260;6.714;2023-02-11T13:53:04;9.85;;;5.90;;
38312;SDS011;24114;52.260;6.714;2023-02-11T13:55:33;8.68;;;6.10;;
38312;SDS011;24114;52.260;6.714;2023-02-11T13:58:14;8.93;;;5.82;;
38312;SDS011;24114;52.260;6.714;2023-02-11T14:00:45;9.20;;;5.85;;
38312;SDS011;24114;52.260;6.714;2023-02-11T14:03:22;10.85;;;5.32;;
38312;SDS011;24114;52.260;6.714;2023-02-11T14:06:13;6.28;;;5.18;;
38312;SDS011;24114;52.260;6.714;2023-02-11T14:09:07;9.80;;;5.90;;
38312;SDS011;24114;52.260;6.714;2023-02-11T14:14:58;7.88;;;5.15;;
38312;SDS011;24114;52.260;6.714;2023-02-11T14:17:41;7.00;;;5.00;;
38312;SDS011;24114;52.260;6.714;2023-02-11T14:22:58;7.65;;;5.22;;
38312;SDS011;24114;52.260;6.714;2023-02-11T14:25:28;7.15;;;4.88;;
38312;SDS011;24114;52.260;6.714;2023-02-11T14:27:56;6.88;;;4.90;;
38312;SDS011;24114;52.260;6.714;2023-02-11T14:30:47;8.18;;;5.57;;
38312;SDS011;24114;52.260;6.714;2023-02-11T14:33:36;7.65;;;5.45;;
38312;SDS011;24114;52.260;6.714;2023-02-11T14:36:17;8.75;;;5.78;;
38312;SDS011;24114;52.260;6.714;2023-02-11T14:38:52;7.22;;;5.15;;
38312;SDS011;24114;52.260;6.714;2023-02-11T14:41:26;7.22;;;5.22;;
38312;SDS011;24114;52.260;6.714;2023-02-11T14:43:57;7.10;;;5.07;;
38312;SDS011;24114;52.260;6.714;2023-02-11T14:46:26;8.32;;;4.90;;
38312;SDS011;24114;52.260;6.714;2023-02-11T14:48:59;7.50;;;5.50;;
38312;SDS011;24114;52.260;6.714;2023-02-11T14:51:28;7.30;;;5.17;;
38312;SDS011;24114;52.260;6.714;2023-02-11T14:53:58;7.00;;;5.00;;
38312;SDS011;24114;52.260;6.714;2023-02-11T14:56:31;7.22;;;5.38;;
38312;SDS011;24114;52.260;6.714;2023-02-11T14:58:59;9.07;;;5.47;;
38312;SDS011;24114;52.260;6.714;2023-02-11T15:01:29;7.35;;;5.03;;
38312;SDS011;24114;52.260;6.714;2023-02-11T15:03:59;7.50;;;5.30;;
38312;SDS011;24114;52.260;6.714;2023-02-11T15:06:29;8.00;;;6.20;;